TimeEST,TemperatureF,Dew PointF,Humidity,Sea Level PressureIn,VisibilityMPH,Wind Direction,Wind SpeedMPH,Gust SpeedMPH,PrecipitationIn,Events,Conditions,WindDirDegrees,DateUTC
12:51 AM,39.0,34.0,82,29.94,10.0,WSW,6.9,-,0.00,,Overcast,240,2013-12-30 05:51:00
1:51 AM,39.0,33.1,79,29.94,10.0,WSW,9.2,19.6,0.00,Rain,Light Rain,240,2013-12-30 06:51:00
2:51 AM,39.0,33.1,79,29.96,10.0,WSW,10.4,-,0.00,,Overcast,240,2013-12-30 07:51:00
3:44 AM,39.2,33.8,81,29.91,10.0,SW,6.9,17.3,0.00,,Overcast,220,2013-12-30 08:44:00
3:51 AM,39.0,33.1,79,29.96,10.0,West,6.9,-,0.00,Rain,Light Rain,260,2013-12-30 08:51:00
4:46 AM,35.6,32.0,87,29.94,10.0,NW,3.5,-,0.01,Rain,Light Rain,320,2013-12-30 09:46:00
4:51 AM,35.1,32.0,89,30.00,10.0,WNW,3.5,-,0.01,Rain,Light Rain,290,2013-12-30 09:51:00
5:23 AM,33.8,30.2,87,29.96,6.0,Variable,4.6,-,0.01,Snow,Light Snow,0,2013-12-30 10:23:00
5:51 AM,33.1,30.0,89,30.03,4.0,NW,6.9,-,0.03,Snow,Light Snow,320,2013-12-30 10:51:00
6:10 AM,33.8,30.2,87,29.99,2.5,NW,8.1,-,0.00,Snow,Light Snow,320,2013-12-30 11:10:00
6:20 AM,33.8,30.2,87,29.99,3.0,NW,8.1,-,0.00,Snow,Light Snow,310,2013-12-30 11:20:00
6:51 AM,33.1,28.9,85,30.06,7.0,NNW,5.8,-,0.01,Snow,Light Snow,330,2013-12-30 11:51:00
7:31 AM,32.0,28.4,87,30.02,9.0,NNW,8.1,-,0.01,,Overcast,330,2013-12-30 12:31:00
7:51 AM,32.0,28.0,85,30.09,10.0,NNW,5.8,-,0.01,,Overcast,340,2013-12-30 12:51:00
8:51 AM,30.9,26.1,82,30.13,10.0,Variable,4.6,-,0.00,,Overcast,0,2013-12-30 13:51:00
9:51 AM,30.0,26.1,85,30.16,10.0,West,8.1,-,N/A,,Overcast,280,2013-12-30 14:51:00
10:51 AM,30.0,25.0,82,30.17,10.0,WSW,4.6,-,N/A,,Overcast,250,2013-12-30 15:51:00
11:51 AM,28.9,25.0,85,30.15,10.0,NW,13.8,-,N/A,,Overcast,310,2013-12-30 16:51:00
12:51 PM,28.9,24.1,82,30.15,10.0,WNW,9.2,17.3,0.00,,Overcast,300,2013-12-30 17:51:00
1:51 PM,28.0,23.0,81,30.16,10.0,WNW,3.5,42.6,N/A,,Overcast,300,2013-12-30 18:51:00
2:51 PM,28.0,23.0,81,30.15,10.0,West,8.1,-,0.00,,Overcast,280,2013-12-30 19:51:00
3:51 PM,27.0,23.0,85,30.16,10.0,WNW,3.5,-,0.00,,Overcast,290,2013-12-30 20:51:00
4:07 PM,28.4,21.2,74,30.09,10.0,WSW,6.9,-,N/A,,Overcast,240,2013-12-30 21:07:00
4:35 PM,26.6,21.2,80,30.09,10.0,WNW,9.2,20.7,0.00,,Overcast,290,2013-12-30 21:35:00
4:51 PM,27.0,21.9,81,30.17,10.0,WNW,6.9,-,0.00,,Overcast,300,2013-12-30 21:51:00
5:23 PM,26.6,21.2,80,30.09,10.0,Calm,Calm,-,0.00,,Overcast,0,2013-12-30 22:23:00
5:51 PM,27.0,21.9,81,30.17,10.0,Calm,Calm,-,0.00,,Overcast,0,2013-12-30 22:51:00
6:51 PM,27.0,21.0,78,30.18,10.0,NW,3.5,-,N/A,,Overcast,310,2013-12-30 23:51:00
7:51 PM,27.0,21.0,78,30.19,10.0,WSW,8.1,-,N/A,,Overcast,250,2013-12-31 00:51:00
8:51 PM,26.1,19.9,78,30.19,10.0,Calm,Calm,-,N/A,,Overcast,0,2013-12-31 01:51:00
9:44 PM,26.6,19.4,74,30.12,10.0,SW,4.6,-,N/A,,Overcast,230,2013-12-31 02:44:00
9:51 PM,27.0,19.9,75,30.20,10.0,SW,5.8,-,N/A,,Overcast,230,2013-12-31 02:51:00
10:51 PM,27.0,19.9,75,30.19,10.0,Calm,Calm,-,N/A,,Overcast,0,2013-12-31 03:51:00
11:51 PM,28.0,19.9,72,30.18,10.0,SSW,3.5,-,N/A,,Overcast,200,2013-12-31 04:51:00